sensor_id;sensor_type;location;lat;lon;timestamp;P1;durP1;ratioP1;P2;durP2;ratioP2
68843;SDS011;55850;51.244;6.824;2022-08-18T00:00:31;23.58;;;16.90;;
68843;SDS011;55850;51.244;6.824;2022-08-18T00:05:40;29.02;;;20.13;;
68843;SDS011;55850;51.244;6.824;2022-08-18T00:10:48;37.67;;;23.47;;
68843;SDS011;55850;51.244;6.824;2022-08-18T00:15:54;32.47;;;20.63;;
68843;SDS011;55850;51.244;6.824;2022-08-18T00:21:02;34.67;;;21.58;;
68843;SDS011;55850;51.244;6.824;2022-08-18T00:26:10;26.03;;;17.53;;
68843;SDS011;55850;51.244;6.824;2022-08-18T00:31:16;35.17;;;23.07;;
68843;SDS011;55850;51.244;6.824;2022-08-18T00:36:22;28.70;;;20.00;;
68843;SDS011;55850;51.244;6.824;2022-08-18T00:41:30;30.38;;;19.33;;
68843;SDS011;55850;51.244;6.824;2022-08-18T00:46:36;23.97;;;16.50;;
68843;SDS011;55850;51.244;6.824;2022-08-18T00:51:43;26.40;;;18.15;;
68843;SDS011;55850;51.244;6.824;2022-08-18T00:56:55;28.00;;;18.08;;
68843;SDS011;55850;51.244;6.824;2022-08-18T01:02:03;24.43;;;16.93;;
68843;SDS011;55850;51.244;6.824;2022-08-18T01:07:13;25.75;;;16.95;;
68843;SDS011;55850;51.244;6.824;2022-08-18T01:12:25;30.38;;;19.00;;
68843;SDS011;55850;51.244;6.824;2022-08-18T01:17:47;26.20;;;18.57;;
68843;SDS011;55850;51.244;6.824;2022-08-18T01:23:10;34.00;;;21.57;;
68843;SDS011;55850;51.244;6.824;2022-08-18T01:28:17;40.25;;;23.73;;
68843;SDS011;55850;51.244;6.824;2022-08-18T01:33:25;31.63;;;22.00;;
68843;SDS011;55850;51.244;6.824;2022-08-18T01:38:36;33.70;;;22.10;;
68843;SDS011;55850;51.244;6.824;2022-08-18T01:43:42;35.75;;;23.13;;
68843;SDS011;55850;51.244;6.824;2022-08-18T01:48:50;30.92;;;20.25;;
68843;SDS011;55850;51.244;6.824;2022-08-18T01:53:59;33.50;;;21.70;;
68843;SDS011;55850;51.244;6.824;2022-08-18T01:59:05;35.70;;;21.88;;
68843;SDS011;55850;51.244;6.824;2022-08-18T02:04:16;39.30;;;23.10;;
68843;SDS011;55850;51.244;6.824;2022-08-18T02:09:41;39.93;;;25.03;;
68843;SDS011;55850;51.244;6.824;2022-08-18T02:14:52;33.67;;;21.83;;
68843;SDS011;55850;51.244;6.824;2022-08-18T02:19:57;39.10;;;23.98;;
68843;SDS011;55850;51.244;6.824;2022-08-18T02:25:08;31.25;;;20.00;;
68843;SDS011;55850;51.244;6.824;2022-08-18T02:30:15;36.90;;;22.47;;
68843;SDS011;55850;51.244;6.824;2022-08-18T02:35:22;33.17;;;20.52;;
68843;SDS011;55850;51.244;6.824;2022-08-18T02:40:30;28.83;;;19.50;;
68843;SDS011;55850;51.244;6.824;2022-08-18T02:45:38;28.13;;;18.20;;
68843;SDS011;55850;51.244;6.824;2022-08-18T02:50:43;34.78;;;22.17;;
68843;SDS011;55850;51.244;6.824;2022-08-18T02:55:53;32.83;;;19.80;;
68843;SDS011;55850;51.244;6.824;2022-08-18T03:00:59;36.70;;;21.03;;
68843;SDS011;55850;51.244;6.824;2022-08-18T03:06:05;41.43;;;24.13;;
68843;SDS011;55850;51.244;6.824;2022-08-18T03:11:14;36.08;;;21.08;;
68843;SDS011;55850;51.244;6.824;2022-08-18T03:16:20;37.70;;;21.73;;
68843;SDS011;55850;51.244;6.824;2022-08-18T03:21:27;35.83;;;20.30;;
68843;SDS011;55850;51.244;6.824;2022-08-18T03:26:39;39.90;;;23.13;;
68843;SDS011;55850;51.244;6.824;2022-08-18T03:31:47;36.85;;;22.08;;
68843;SDS011;55850;51.244;6.824;2022-08-18T03:36:53;35.83;;;20.00;;
68843;SDS011;55850;51.244;6.824;2022-08-18T03:42:02;30.83;;;18.35;;
68843;SDS011;55850;51.244;6.824;2022-08-18T03:47:08;30.95;;;18.05;;
68843;SDS011;55850;51.244;6.824;2022-08-18T03:52:14;29.73;;;16.67;;
68843;SDS011;55850;51.244;6.824;2022-08-18T03:57:23;26.90;;;16.23;;
68843;SDS011;55850;51.244;6.824;2022-08-18T04:02:28;32.35;;;19.95;;
68843;SDS011;55850;51.244;6.824;2022-08-18T04:07:34;29.63;;;17.27;;
68843;SDS011;55850;51.244;6.824;2022-08-18T04:12:42;30.87;;;17.63;;
68843;SDS011;55850;51.244;6.824;2022-08-18T04:17:48;26.88;;;16.45;;
68843;SDS011;55850;51.244;6.824;2022-08-18T04:23:07;29.02;;;16.60;;
68843;SDS011;55850;51.244;6.824;2022-08-18T04:28:15;27.93;;;17.03;;
68843;SDS011;55850;51.244;6.824;2022-08-18T04:33:21;21.42;;;13.73;;
68843;SDS011;55850;51.244;6.824;2022-08-18T04:38:27;26.75;;;15.10;;
68843;SDS011;55850;51.244;6.824;2022-08-18T04:43:35;22.23;;;14.73;;
68843;SDS011;55850;51.244;6.824;2022-08-18T04:48:41;25.57;;;15.37;;
68843;SDS011;55850;51.244;6.824;2022-08-18T04:53:48;28.02;;;16.63;;
68843;SDS011;55850;51.244;6.824;2022-08-18T04:58:59;24.60;;;14.73;;
68843;SDS011;55850;51.244;6.824;2022-08-18T05:04:07;20.47;;;12.87;;
68843;SDS011;55850;51.244;6.824;2022-08-18T05:09:15;24.38;;;14.90;;
68843;SDS011;55850;51.244;6.824;2022-08-18T05:14:27;25.30;;;14.73;;
68843;SDS011;55850;51.244;6.824;2022-08-18T05:19:32;21.00;;;13.53;;
68843;SDS011;55850;51.244;6.824;2022-08-18T05:24:45;27.33;;;15.27;;
68843;SDS011;55850;51.244;6.824;2022-08-18T05:29:53;27.10;;;16.15;;
68843;SDS011;55850;51.244;6.824;2022-08-18T05:35:01;28.50;;;18.03;;
68843;SDS011;55850;51.244;6.824;2022-08-18T05:40:09;27.40;;;17.30;;
68843;SDS011;55850;51.244;6.824;2022-08-18T05:45:19;29.65;;;17.08;;
68843;SDS011;55850;51.244;6.824;2022-08-18T05:50:25;29.77;;;17.35;;
68843;SDS011;55850;51.244;6.824;2022-08-18T05:55:35;26.33;;;16.00;;
68843;SDS011;55850;51.244;6.824;2022-08-18T06:00:59;31.98;;;18.65;;
68843;SDS011;55850;51.244;6.824;2022-08-18T06:06:10;30.00;;;18.20;;
68843;SDS011;55850;51.244;6.824;2022-08-18T06:11:20;28.93;;;16.97;;
68843;SDS011;55850;51.244;6.824;2022-08-18T06:16:34;30.98;;;16.30;;
68843;SDS011;55850;51.244;6.824;2022-08-18T06:21:48;26.05;;;15.27;;
68843;SDS011;55850;51.244;6.824;2022-08-18T06:27:00;27.57;;;15.37;;
68843;SDS011;55850;51.244;6.824;2022-08-18T06:32:33;26.40;;;14.90;;
68843;SDS011;55850;51.244;6.824;2022-08-18T06:37:48;27.67;;;14.77;;
68843;SDS011;55850;51.244;6.824;2022-08-18T06:43:15;29.45;;;16.15;;
68843;SDS011;55850;51.244;6.824;2022-08-18T06:48:30;29.30;;;16.37;;
68843;SDS011;55850;51.244;6.824;2022-08-18T06:53:50;30.90;;;16.20;;
68843;SDS011;55850;51.244;6.824;2022-08-18T06:59:12;22.40;;;13.10;;
68843;SDS011;55850;51.244;6.824;2022-08-18T07:04:40;30.67;;;17.20;;
68843;SDS011;55850;51.244;6.824;2022-08-18T07:09:48;26.05;;;15.18;;
68843;SDS011;55850;51.244;6.824;2022-08-18T07:14:55;26.63;;;15.90;;
68843;SDS011;55850;51.244;6.824;2022-08-18T07:20:08;29.80;;;16.70;;
68843;SDS011;55850;51.244;6.824;2022-08-18T07:25:23;28.83;;;16.50;;
68843;SDS011;55850;51.244;6.824;2022-08-18T07:30:32;26.88;;;16.75;;
68843;SDS011;55850;51.244;6.824;2022-08-18T07:35:59;28.38;;;16.77;;
68843;SDS011;55850;51.244;6.824;2022-08-18T07:41:10;26.23;;;15.50;;
68843;SDS011;55850;51.244;6.824;2022-08-18T07:46:27;28.00;;;16.40;;
68843;SDS011;55850;51.244;6.824;2022-08-18T07:51:45;25.50;;;16.33;;
68843;SDS011;55850;51.244;6.824;2022-08-18T07:56:55;27.67;;;16.23;;
68843;SDS011;55850;51.244;6.824;2022-08-18T08:02:15;29.42;;;17.33;;
68843;SDS011;55850;51.244;6.824;2022-08-18T08:07:34;22.80;;;14.13;;
68843;SDS011;55850;51.244;6.824;2022-08-18T08:12:52;24.80;;;15.27;;
68843;SDS011;55850;51.244;6.824;2022-08-18T08:18:11;21.20;;;13.43;;
68843;SDS011;55850;51.244;6.824;2022-08-18T08:23:27;21.80;;;13.18;;
68843;SDS011;55850;51.244;6.824;2022-08-18T08:28:38;20.58;;;12.38;;
68843;SDS011;55850;51.244;6.824;2022-08-18T08:33:57;23.43;;;14.33;;
68843;SDS011;55850;51.244;6.824;2022-08-18T08:39:19;26.88;;;14.60;;
68843;SDS011;55850;51.244;6.824;2022-08-18T08:44:37;23.20;;;14.15;;
68843;SDS011;55850;51.244;6.824;2022-08-18T08:50:01;23.27;;;14.40;;
68843;SDS011;55850;51.244;6.824;2022-08-18T08:55:12;24.40;;;15.75;;
68843;SDS011;55850;51.244;6.824;2022-08-18T09:00:22;21.45;;;13.02;;
68843;SDS011;55850;51.244;6.824;2022-08-18T09:05:30;15.67;;;11.23;;
68843;SDS011;55850;51.244;6.824;2022-08-18T09:16:34;17.15;;;11.52;;
68843;SDS011;55850;51.244;6.824;2022-08-18T09:21:50;24.23;;;15.20;;
68843;SDS011;55850;51.244;6.824;2022-08-18T09:27:21;20.70;;;13.27;;
68843;SDS011;55850;51.244;6.824;2022-08-18T09:32:56;16.85;;;11.15;;
68843;SDS011;55850;51.244;6.824;2022-08-18T09:38:21;17.42;;;10.85;;
68843;SDS011;55850;51.244;6.824;2022-08-18T09:43:55;19.17;;;11.70;;
68843;SDS011;55850;51.244;6.824;2022-08-18T09:49:37;16.40;;;11.35;;
68843;SDS011;55850;51.244;6.824;2022-08-18T09:54:50;11.48;;;9.25;;
68843;SDS011;55850;51.244;6.824;2022-08-18T10:05:35;15.30;;;8.63;;
68843;SDS011;55850;51.244;6.824;2022-08-18T10:10:44;13.85;;;10.05;;
68843;SDS011;55850;51.244;6.824;2022-08-18T10:16:20;10.07;;;7.18;;
68843;SDS011;55850;51.244;6.824;2022-08-18T10:22:03;9.07;;;6.57;;
68843;SDS011;55850;51.244;6.824;2022-08-18T10:32:44;13.27;;;9.55;;
68843;SDS011;55850;51.244;6.824;2022-08-18T10:37:55;12.20;;;9.10;;
68843;SDS011;55850;51.244;6.824;2022-08-18T10:43:07;13.00;;;10.02;;
68843;SDS011;55850;51.244;6.824;2022-08-18T10:48:38;12.23;;;8.00;;
68843;SDS011;55850;51.244;6.824;2022-08-18T10:53:45;10.90;;;7.17;;
68843;SDS011;55850;51.244;6.824;2022-08-18T10:58:58;11.73;;;8.43;;
68843;SDS011;55850;51.244;6.824;2022-08-18T11:04:28;11.27;;;8.35;;
68843;SDS011;55850;51.244;6.824;2022-08-18T11:09:56;14.73;;;10.18;;
68843;SDS011;55850;51.244;6.824;2022-08-18T11:15:27;12.37;;;9.97;;
68843;SDS011;55850;51.244;6.824;2022-08-18T11:20:43;17.73;;;12.13;;
68843;SDS011;55850;51.244;6.824;2022-08-18T11:25:49;19.70;;;12.68;;
68843;SDS011;55850;51.244;6.824;2022-08-18T11:30:55;14.23;;;10.30;;
68843;SDS011;55850;51.244;6.824;2022-08-18T11:36:04;12.30;;;8.40;;
68843;SDS011;55850;51.244;6.824;2022-08-18T11:41:11;13.52;;;8.68;;
68843;SDS011;55850;51.244;6.824;2022-08-18T11:46:26;14.90;;;10.57;;
68843;SDS011;55850;51.244;6.824;2022-08-18T11:51:51;12.43;;;9.37;;
68843;SDS011;55850;51.244;6.824;2022-08-18T12:02:31;14.48;;;11.95;;
68843;SDS011;55850;51.244;6.824;2022-08-18T12:07:40;12.87;;;9.67;;
68843;SDS011;55850;51.244;6.824;2022-08-18T12:12:58;19.27;;;13.50;;
68843;SDS011;55850;51.244;6.824;2022-08-18T12:18:04;18.92;;;11.50;;
68843;SDS011;55850;51.244;6.824;2022-08-18T12:23:12;14.03;;;9.90;;
68843;SDS011;55850;51.244;6.824;2022-08-18T12:28:18;13.07;;;9.30;;
68843;SDS011;55850;51.244;6.824;2022-08-18T12:33:29;13.63;;;10.48;;
68843;SDS011;55850;51.244;6.824;2022-08-18T12:38:51;12.67;;;10.53;;
68843;SDS011;55850;51.244;6.824;2022-08-18T12:43:57;13.10;;;10.43;;
68843;SDS011;55850;51.244;6.824;2022-08-18T12:49:03;12.00;;;10.02;;
68843;SDS011;55850;51.244;6.824;2022-08-18T12:54:18;13.07;;;9.57;;
68843;SDS011;55850;51.244;6.824;2022-08-18T12:59:26;15.13;;;11.83;;
68843;SDS011;55850;51.244;6.824;2022-08-18T13:04:38;15.50;;;11.27;;
68843;SDS011;55850;51.244;6.824;2022-08-18T13:09:47;15.73;;;11.73;;
68843;SDS011;55850;51.244;6.824;2022-08-18T13:14:55;13.47;;;10.57;;
68843;SDS011;55850;51.244;6.824;2022-08-18T13:20:02;14.15;;;10.70;;
68843;SDS011;55850;51.244;6.824;2022-08-18T13:25:14;14.32;;;10.77;;
68843;SDS011;55850;51.244;6.824;2022-08-18T13:30:34;15.10;;;10.97;;
68843;SDS011;55850;51.244;6.824;2022-08-18T13:35:41;16.93;;;12.67;;
68843;SDS011;55850;51.244;6.824;2022-08-18T13:40:50;17.05;;;13.05;;
68843;SDS011;55850;51.244;6.824;2022-08-18T13:45:56;17.48;;;13.98;;
68843;SDS011;55850;51.244;6.824;2022-08-18T13:51:03;18.63;;;14.53;;
68843;SDS011;55850;51.244;6.824;2022-08-18T13:56:13;17.95;;;13.98;;
68843;SDS011;55850;51.244;6.824;2022-08-18T14:01:20;17.05;;;13.85;;
68843;SDS011;55850;51.244;6.824;2022-08-18T14:06:49;21.13;;;15.13;;
68843;SDS011;55850;51.244;6.824;2022-08-18T14:12:01;18.48;;;14.73;;
68843;SDS011;55850;51.244;6.824;2022-08-18T14:17:32;16.33;;;13.57;;
68843;SDS011;55850;51.244;6.824;2022-08-18T14:22:40;12.23;;;9.93;;
68843;SDS011;55850;51.244;6.824;2022-08-18T14:28:01;17.23;;;13.87;;
68843;SDS011;55850;51.244;6.824;2022-08-18T14:33:07;13.40;;;10.48;;
68843;SDS011;55850;51.244;6.824;2022-08-18T14:38:16;10.85;;;8.93;;
68843;SDS011;55850;51.244;6.824;2022-08-18T14:43:26;9.70;;;6.97;;
68843;SDS011;55850;51.244;6.824;2022-08-18T14:48:53;7.28;;;6.53;;
68843;SDS011;55850;51.244;6.824;2022-08-18T14:53:58;10.70;;;6.00;;
68843;SDS011;55850;51.244;6.824;2022-08-18T14:59:07;6.43;;;5.83;;
68843;SDS011;55850;51.244;6.824;2022-08-18T15:04:14;7.18;;;6.47;;
68843;SDS011;55850;51.244;6.824;2022-08-18T15:09:21;7.40;;;6.70;;
68843;SDS011;55850;51.244;6.824;2022-08-18T15:14:31;6.43;;;5.83;;
68843;SDS011;55850;51.244;6.824;2022-08-18T15:19:37;7.70;;;6.03;;
68843;SDS011;55850;51.244;6.824;2022-08-18T15:25:02;7.53;;;6.05;;
68843;SDS011;55850;51.244;6.824;2022-08-18T15:30:28;6.28;;;5.60;;
68843;SDS011;55850;51.244;6.824;2022-08-18T15:35:33;6.97;;;5.93;;
68843;SDS011;55850;51.244;6.824;2022-08-18T15:40:46;6.25;;;5.65;;
68843;SDS011;55850;51.244;6.824;2022-08-18T15:46:00;7.60;;;5.22;;
68843;SDS011;55850;51.244;6.824;2022-08-18T15:51:09;7.07;;;5.63;;
68843;SDS011;55850;51.244;6.824;2022-08-18T15:56:19;7.25;;;5.70;;
68843;SDS011;55850;51.244;6.824;2022-08-18T16:01:29;7.18;;;6.43;;
68843;SDS011;55850;51.244;6.824;2022-08-18T16:06:43;7.17;;;5.80;;
68843;SDS011;55850;51.244;6.824;2022-08-18T16:11:53;6.57;;;5.77;;
68843;SDS011;55850;51.244;6.824;2022-08-18T16:17:04;8.57;;;5.85;;
68843;SDS011;55850;51.244;6.824;2022-08-18T16:22:24;6.68;;;5.50;;
68843;SDS011;55850;51.244;6.824;2022-08-18T16:27:30;6.83;;;5.97;;
68843;SDS011;55850;51.244;6.824;2022-08-18T16:32:39;6.25;;;5.70;;
68843;SDS011;55850;51.244;6.824;2022-08-18T16:37:45;7.47;;;5.43;;
68843;SDS011;55850;51.244;6.824;2022-08-18T16:42:52;6.27;;;5.63;;
68843;SDS011;55850;51.244;6.824;2022-08-18T16:48:01;9.80;;;5.20;;
68843;SDS011;55850;51.244;6.824;2022-08-18T16:53:09;6.50;;;5.30;;
68843;SDS011;55850;51.244;6.824;2022-08-18T16:58:15;7.50;;;6.07;;
68843;SDS011;55850;51.244;6.824;2022-08-18T17:03:36;6.83;;;4.83;;
68843;SDS011;55850;51.244;6.824;2022-08-18T17:08:54;7.90;;;5.10;;
68843;SDS011;55850;51.244;6.824;2022-08-18T17:14:12;7.32;;;4.97;;
68843;SDS011;55850;51.244;6.824;2022-08-18T17:19:29;8.27;;;4.60;;
68843;SDS011;55850;51.244;6.824;2022-08-18T17:24:36;6.18;;;4.57;;
68843;SDS011;55850;51.244;6.824;2022-08-18T17:29:52;7.43;;;4.70;;
68843;SDS011;55850;51.244;6.824;2022-08-18T17:35:09;6.90;;;5.20;;
68843;SDS011;55850;51.244;6.824;2022-08-18T17:40:19;5.00;;;4.40;;
68843;SDS011;55850;51.244;6.824;2022-08-18T17:45:30;7.93;;;4.97;;
68843;SDS011;55850;51.244;6.824;2022-08-18T17:50:41;9.50;;;4.97;;
68843;SDS011;55850;51.244;6.824;2022-08-18T17:56:05;5.57;;;4.27;;
68843;SDS011;55850;51.244;6.824;2022-08-18T18:01:16;10.38;;;4.45;;
68843;SDS011;55850;51.244;6.824;2022-08-18T18:06:25;4.93;;;4.20;;
68843;SDS011;55850;51.244;6.824;2022-08-18T18:11:40;6.60;;;4.43;;
68843;SDS011;55850;51.244;6.824;2022-08-18T18:16:58;5.18;;;4.03;;
68843;SDS011;55850;51.244;6.824;2022-08-18T18:22:15;7.25;;;4.43;;
68843;SDS011;55850;51.244;6.824;2022-08-18T18:27:26;6.20;;;4.70;;
68843;SDS011;55850;51.244;6.824;2022-08-18T18:32:47;6.13;;;4.20;;
68843;SDS011;55850;51.244;6.824;2022-08-18T18:38:04;6.82;;;4.30;;
68843;SDS011;55850;51.244;6.824;2022-08-18T18:43:29;4.30;;;3.80;;
68843;SDS011;55850;51.244;6.824;2022-08-18T18:48:41;6.00;;;4.20;;
68843;SDS011;55850;51.244;6.824;2022-08-18T18:53:59;5.57;;;4.05;;
68843;SDS011;55850;51.244;6.824;2022-08-18T18:59:15;5.72;;;4.30;;
68843;SDS011;55850;51.244;6.824;2022-08-18T19:04:38;5.10;;;4.10;;
68843;SDS011;55850;51.244;6.824;2022-08-18T19:09:52;5.82;;;4.07;;
68843;SDS011;55850;51.244;6.824;2022-08-18T19:15:06;5.80;;;3.95;;
68843;SDS011;55850;51.244;6.824;2022-08-18T19:20:17;7.37;;;4.10;;
68843;SDS011;55850;51.244;6.824;2022-08-18T19:25:30;6.25;;;3.88;;
68843;SDS011;55850;51.244;6.824;2022-08-18T19:30:40;4.25;;;3.85;;
68843;SDS011;55850;51.244;6.824;2022-08-18T19:35:51;5.43;;;3.77;;
68843;SDS011;55850;51.244;6.824;2022-08-18T19:41:07;5.30;;;3.77;;
68843;SDS011;55850;51.244;6.824;2022-08-18T19:46:22;5.45;;;3.78;;
68843;SDS011;55850;51.244;6.824;2022-08-18T19:51:36;4.18;;;3.50;;
68843;SDS011;55850;51.244;6.824;2022-08-18T19:56:51;4.00;;;3.60;;
68843;SDS011;55850;51.244;6.824;2022-08-18T20:02:10;6.30;;;4.00;;
68843;SDS011;55850;51.244;6.824;2022-08-18T20:13:16;4.77;;;3.33;;
68843;SDS011;55850;51.244;6.824;2022-08-18T20:18:35;6.90;;;4.20;;
68843;SDS011;55850;51.244;6.824;2022-08-18T20:23:56;7.13;;;4.35;;
68843;SDS011;55850;51.244;6.824;2022-08-18T20:29:06;6.83;;;3.97;;
68843;SDS011;55850;51.244;6.824;2022-08-18T20:34:15;7.43;;;4.53;;
68843;SDS011;55850;51.244;6.824;2022-08-18T20:39:30;6.60;;;4.18;;
68843;SDS011;55850;51.244;6.824;2022-08-18T20:44:54;5.60;;;4.30;;
68843;SDS011;55850;51.244;6.824;2022-08-18T20:50:13;7.07;;;4.40;;
68843;SDS011;55850;51.244;6.824;2022-08-18T20:55:56;4.32;;;3.92;;
68843;SDS011;55850;51.244;6.824;2022-08-18T21:01:33;4.88;;;3.80;;
68843;SDS011;55850;51.244;6.824;2022-08-18T21:06:40;7.17;;;4.80;;
68843;SDS011;55850;51.244;6.824;2022-08-18T21:11:47;6.10;;;3.90;;
68843;SDS011;55850;51.244;6.824;2022-08-18T21:16:56;5.18;;;4.18;;
68843;SDS011;55850;51.244;6.824;2022-08-18T21:22:02;4.40;;;4.00;;
68843;SDS011;55850;51.244;6.824;2022-08-18T21:27:10;5.90;;;4.60;;
68843;SDS011;55850;51.244;6.824;2022-08-18T21:32:27;6.63;;;4.88;;
68843;SDS011;55850;51.244;6.824;2022-08-18T21:37:38;6.57;;;4.75;;
68843;SDS011;55850;51.244;6.824;2022-08-18T21:42:51;5.80;;;4.53;;
68843;SDS011;55850;51.244;6.824;2022-08-18T21:48:03;5.78;;;4.93;;
68843;SDS011;55850;51.244;6.824;2022-08-18T21:53:14;5.85;;;4.40;;
68843;SDS011;55850;51.244;6.824;2022-08-18T21:58:35;4.73;;;4.27;;
68843;SDS011;55850;51.244;6.824;2022-08-18T22:03:59;4.45;;;4.05;;
68843;SDS011;55850;51.244;6.824;2022-08-18T22:09:15;5.18;;;4.20;;
68843;SDS011;55850;51.244;6.824;2022-08-18T22:14:41;5.73;;;4.20;;
68843;SDS011;55850;51.244;6.824;2022-08-18T22:25:34;5.05;;;4.10;;
68843;SDS011;55850;51.244;6.824;2022-08-18T22:30:40;4.95;;;4.10;;
68843;SDS011;55850;51.244;6.824;2022-08-18T22:35:51;5.90;;;4.50;;
68843;SDS011;55850;51.244;6.824;2022-08-18T22:41:00;4.53;;;3.83;;
68843;SDS011;55850;51.244;6.824;2022-08-18T22:46:06;6.38;;;4.10;;
68843;SDS011;55850;51.244;6.824;2022-08-18T22:51:12;4.83;;;4.10;;
68843;SDS011;55850;51.244;6.824;2022-08-18T22:56:20;5.82;;;4.10;;
68843;SDS011;55850;51.244;6.824;2022-08-18T23:01:36;5.80;;;4.40;;
68843;SDS011;55850;51.244;6.824;2022-08-18T23:06:42;5.67;;;4.30;;
68843;SDS011;55850;51.244;6.824;2022-08-18T23:11:57;5.23;;;4.27;;
68843;SDS011;55850;51.244;6.824;2022-08-18T23:17:04;5.60;;;4.22;;
68843;SDS011;55850;51.244;6.824;2022-08-18T23:22:10;5.03;;;4.00;;
68843;SDS011;55850;51.244;6.824;2022-08-18T23:27:18;6.13;;;4.53;;
68843;SDS011;55850;51.244;6.824;2022-08-18T23:32:25;5.22;;;4.35;;
68843;SDS011;55850;51.244;6.824;2022-08-18T23:37:32;6.13;;;4.22;;
68843;SDS011;55850;51.244;6.824;2022-08-18T23:42:41;6.27;;;4.20;;
68843;SDS011;55850;51.244;6.824;2022-08-18T23:47:52;4.97;;;3.83;;
68843;SDS011;55850;51.244;6.824;2022-08-18T23:52:59;5.35;;;3.75;;
68843;SDS011;55850;51.244;6.824;2022-08-18T23:58:08;5.90;;;4.20;;
